Sarajevo, Bosnia and Herzegovina
Current Conditions -  °F | °C
As of 1:00 AM on Wednesday 28 Jan 2015 (Local Time) from LQSA Reporting Station
Light Snow Light Snow  
Wind Chill: 30°   Ceiling: 2700
Heat Index: 30°   Visibility: 4mi
Dew Point: 28°   Wind: 3mph
Humidity: 93%   Direction: 280°W
Pressure: 29.91"   Gusts: NA
Location:  43.85°N, 18.38°E
Report Text: LQSA 272300Z 28003KT 6000 -SN OVC027 M01/M02 Q1013
Loading
Personal Weather Stations






























Interactive Weather Map New forecast layout! Learn more

10-Day Weather Forecast

Advertisements
Track Severe Weather on mobile